NCAR-RAP Real-Time Weather Data

Output produced by METARs form (17 September 2019  16:11 UTC)
found at http://weather.rap.ucar.edu/surface/
 
KGEG 171553Z 17009KT 10SM SCT008 SCT050 SCT100 BKN200 10/06 A2993 RMK AO2 SLP134 T01000061
KGEG 171545Z 16008KT 10SM SCT008 SCT050 SCT100 BKN200 09/07 A2993 RMK AO2 T00940067
KGEG 171453Z COR 16008KT 10SM BKN008 BKN050 OVC220 08/06 A2992 RMK AO2 SLP134 T00830061 53007
KGEG 171443Z 16009KT 10SM BKN008 BKN050 BKN220 08/06 A2992 RMK AO2 T00830056
KGEG 171353Z 16009KT 10SM FEW008 BKN050 BKN100 BKN220 07/06 A2991 RMK AO2 SLP131 T00720056
KGEG 171253Z 18006KT 10SM FEW008 FEW065 BKN250 08/06 A2990 RMK AO2 SLP127 T00780061
KGEG 171153Z 15006KT 10SM FEW006 FEW025 FEW065 08/07 A2990 RMK AO2 SLP127 70008 T00830067 10111 20083 51005
KGEG 171053Z 16006KT 10SM FEW025 SCT140 BKN250 09/08 A2990 RMK AO2 SLP125 T00940078
KGEG 170953Z 16006KT 10SM FEW008 SCT043 BKN230 10/08 A2990 RMK AO2 SLP123 T01000078
KGEG 170947Z 16005KT 10SM SCT017 BKN043 BKN055 10/08 A2989 RMK AO2
KGEG 170921Z 12003KT 10SM BKN015 BKN041 10/08 A2989 RMK AO2 T01000078
KGEG 170853Z 19004KT 10SM FEW004 OVC011 10/08 A2989 RMK AO2 SLP120 CIG 009V013 T01000078 53006
KGEG 170835Z 21006KT 10SM FEW004 BKN008 11/08 A2988 RMK AO2 T01060078
KGEG 170753Z 19004KT 10SM FEW004 BKN011 BKN095 10/08 A2987 RMK AO2 SLP114 T01000078 401440100
KGEG 170653Z 19004KT 10SM FEW004 FEW009 FEW018 11/08 A2985 RMK AO2 SLP110 T01060083
KGEG 170644Z 18005KT 10SM FEW004 FEW009 FEW018 11/08 A2986 RMK AO2 T01060083
KGEG 170630Z 18004KT 10SM FEW004 SCT009 BKN018 11/08 A2986 RMK AO2 T01110083
KGEG 170605Z 22007KT 10SM FEW004 BKN013 OVC018 11/09 A2987 RMK AO2 T01110089
KGEG 170553Z 20008KT 10SM FEW004 OVC016 11/09 A2987 RMK AO2 SLP112 T01110089 10128 20111 51004
KGEG 170539Z 190KT 05 10SM FEW009 BKN016 11/09 A2987 RMK A02 T01110089
KGEG 170524Z 19006KT 10SM FEW009 BKN014 11/09 A2986 RMK AO2 T01110089
KGEG 170453Z 17004KT 10SM FEW011 BKN013 BKN049 BKN140 11/09 A2987 RMK AO2 SLP112 T01110089
KGEG 170440Z 18004KT 10SM BKN011 11/09 A2987 RMK AO2 T01110089
KGEG 170438Z 18004KT 10SM SCT011 SCT017 11/09 A2987 RMK AO2 T01110089
KGEG 170409Z 19006KT 10SM BKN011 BKN045 11/09 A2986 RMK AO2 T01110089
KGEG 170353Z 20007KT 10SM FEW017 FEW045 SCT140 12/09 A2985 RMK AO2 SLP108 T01170094
KGEG 170253Z 21005KT 10SM FEW003 FEW031 BKN042 12/09 A2985 RMK AO2 SLP107 T01220094 51008
KGEG 170053Z 22008KT 10SM FEW003 BKN065 OVC110 13/09 A2984 RMK AO2 SLP103 VIRGA T01280089
KGEG 162353Z 25008KT 10SM FEW003 BKN033 OVC075 13/09 A2983 RMK AO2 RAB15E46 SLP098 P0000 60007 T01280094 10133 20111 53003
KGEG 162343Z 24007KT 10SM -RA FEW003 BKN033 OVC090 12/09 A2983 RMK AO2 RAB15 P0000 T01220094
KGEG 162253Z 26009KT 10SM FEW015 SCT029 BKN033 13/08 A2983 RMK AO2 SLP096 VCSH SW-W SHRA DSNT N T01330083
KGEG 162238Z 25011KT 10SM FEW019 BKN033 OVC075 13/08 A2983 RMK AO2 T01330083